Terminal Aerodrome Forecast
Issued by NWS

Home | Current Version | Previous Version | Text Only | Print | Product List | Glossary On
Versions: 1 2 3 4 5 6 7 8 9 10 11 12 13 14
000
FTUS43 KGRB 100520
TAFATW
TAF
KATW 100520Z 1006/1106 32011G17KT P6SM BKN040
      TEMPO 1008/1012 SCT040
     FM101400 32012G20KT P6SM OVC050
     FM110000 31006KT P6SM SCT050=

USA.gov is the U.S. government's official web portal to all federal, state and local government web resources and services.